Huvudsida
METAR-TAF:

METAR-TAF

Flygplatser :

Bolzano, Italien

latitud: 46-28N, longitud: 011-20E, höjd: 262 m

Aktuellt väderrapport

Denna rapport gjordes för 1 timme och 4 minuter sedan, klockan 06:50 UTC
Vind 2 kt varierande vindriktning
Temperatur 0°C
Fuktighet 80%
Tryck 1032 hPa
Sikt 10 km eller mer
Inga moln under 1 500 m eller inga cumulonimbus

METAR: LIPB 220650Z VRB02KT CAVOK 00/M03 Q1032 RMK MON LIB

Tid: 08:54 (07:54 UTC)

Väderprognos

Denna rapport gjordes för 2 timmar och 54 minuter sedan, klockan 05:00 UTC
Prognos gäller från 22 kl. 06 UTC till 23 kl. 06 UTC
Vind 5 kt varierande vindriktning
Sikt 10 km eller mer
Spridda moln på en höjd av 3000 ft

TAF: LIPB 220500Z 2206/2306 VRB05KT 9999 SCT030

Aktuella väderrapporter och prognoser från 4000 flygplatser (METAR- och TAF-rapporter).

De tillgängliga stationerna syns som gula och röda prickar på kartan.

För musen över prickarna för att se namnen på stationerna.

Klicka sedan för att få väderrapporter och prognoser.

För att ändra kartan: Klicka på de gröna knapparna med ett svart kors på för att zooma in; den gröna knappen med ett streck på för att zooma ut; eller på de gröna pilarna för angränsande kartor.


METAR-TAF: